Time;durP1;ratioP1;P1;durP2;ratioP2;P2;SDS_P1;SDS_P2;PMS_P1;PMS_P2;Temp;Humidity;BMP_temperature;BMP_pressure;BME280_temperature;BME280_humidity;BME280_pressure;Samples;Min_cycle;Max_cycle;Signal;HPM_P1;HPM_P2
2022/12/03 08:23:29;;;;;;;22.60;9.20;;;4.10;99.90;;;;;;5129923;27;20436;-78
2022/12/03 08:26:18;;;;;;;22.45;8.90;;;4.00;99.90;;;;;;5100696;28;20048;-79
2022/12/03 08:29:09;;;;;;;25.98;10.82;;;4.00;99.90;;;;;;5108171;28;20117;-79
2022/12/03 08:31:57;;;;;;;23.30;9.85;;;4.00;99.90;;;;;;5105858;28;20060;-84
2022/12/03 08:34:43;;;;;;;19.80;8.95;;;4.00;99.90;;;;;;5110265;28;20055;-80
2022/12/03 08:37:30;;;;;;;22.13;9.40;;;4.00;99.90;;;;;;5107776;28;20055;-80
2022/12/03 08:40:31;;;;;;;18.60;9.23;;;4.00;99.90;;;;;;5107406;28;20047;-83
2022/12/03 08:43:19;;;;;;;24.05;10.70;;;4.00;99.90;;;;;;5107400;28;20040;-81
2022/12/03 08:46:12;;;;;;;20.65;8.88;;;4.00;99.90;;;;;;5107318;28;20487;-84
2022/12/03 08:48:58;;;;;;;24.58;10.65;;;4.00;99.90;;;;;;5107027;28;20067;-82
2022/12/03 08:51:45;;;;;;;19.17;9.73;;;3.90;99.90;;;;;;5107397;28;20533;-83
2022/12/03 08:54:31;;;;;;;21.83;10.18;;;3.90;99.90;;;;;;5105511;28;20051;-83
2022/12/03 08:57:27;;;;;;;24.55;10.32;;;3.90;99.90;;;;;;5122622;28;20045;-84
2022/12/03 09:00:23;;;;;;;24.65;10.68;;;3.90;99.90;;;;;;5128817;28;20064;-79
2022/12/03 09:03:17;;;;;;;22.05;10.30;;;3.90;99.90;;;;;;5131681;28;20069;-80
2022/12/03 09:06:03;;;;;;;20.35;9.93;;;3.90;99.90;;;;;;5128166;28;20050;-82
2022/12/03 09:08:50;;;;;;;23.75;11.10;;;3.90;99.90;;;;;;5126549;28;20047;-78
2022/12/03 09:11:36;;;;;;;22.23;10.52;;;3.90;99.90;;;;;;5128908;28;20058;-80
2022/12/03 09:14:22;;;;;;;23.52;11.57;;;3.90;99.90;;;;;;5128536;28;20066;-79
2022/12/03 09:17:09;;;;;;;19.63;9.90;;;3.80;99.90;;;;;;5113098;28;20078;-80
2022/12/03 09:19:55;;;;;;;20.75;10.13;;;3.80;99.90;;;;;;5125213;28;20090;-81
2022/12/03 09:22:41;;;;;;;19.90;9.90;;;3.80;99.90;;;;;;5125912;28;20138;-80
2022/12/03 09:25:27;;;;;;;21.35;10.25;;;3.80;99.90;;;;;;5110669;28;20065;-79
2022/12/03 09:28:13;;;;;;;20.20;10.82;;;3.80;99.90;;;;;;5127896;28;20452;-78
2022/12/03 09:30:59;;;;;;;23.20;10.98;;;3.80;99.90;;;;;;5127244;28;20047;-79
2022/12/03 09:33:46;;;;;;;19.77;10.20;;;3.80;99.90;;;;;;5117623;28;20047;-83
2022/12/03 09:36:32;;;;;;;21.80;11.98;;;3.80;99.90;;;;;;5113056;28;20048;-79
2022/12/03 09:39:18;;;;;;;21.58;10.50;;;3.80;99.90;;;;;;5114619;28;20517;-86
2022/12/03 09:42:04;;;;;;;22.20;10.68;;;3.80;99.90;;;;;;5111685;28;20509;-80
2022/12/03 09:44:50;;;;;;;22.02;11.00;;;3.80;99.90;;;;;;5114284;28;20048;-82
2022/12/03 09:47:39;;;;;;;20.98;10.38;;;3.80;99.90;;;;;;5112270;28;20130;-80
2022/12/03 09:50:26;;;;;;;19.85;10.02;;;3.80;99.90;;;;;;5098412;28;20060;-84
2022/12/03 09:53:20;;;;;;;21.70;10.15;;;3.80;99.90;;;;;;5113853;28;20071;-85
2022/12/03 09:56:16;;;;;;;22.63;10.77;;;3.90;99.90;;;;;;5112432;28;20043;-83
2022/12/03 09:59:11;;;;;;;21.88;10.25;;;3.90;99.90;;;;;;5112112;28;20065;-79
2022/12/03 10:01:58;;;;;;;23.53;11.87;;;3.90;99.90;;;;;;5111533;28;20047;-82
2022/12/03 10:04:45;;;;;;;21.48;10.50;;;3.90;99.90;;;;;;5115170;28;20043;-84
2022/12/03 10:07:31;;;;;;;25.17;11.88;;;4.00;99.90;;;;;;5112439;28;20047;-84
2022/12/03 10:10:20;;;;;;;18.45;10.25;;;4.00;99.90;;;;;;5097084;28;20483;-85
2022/12/03 10:13:12;;;;;;;22.75;10.07;;;4.00;99.90;;;;;;5096972;28;20056;-83
2022/12/03 10:15:59;;;;;;;23.10;11.18;;;4.00;99.90;;;;;;5111294;28;20108;-80
2022/12/03 10:18:51;;;;;;;21.40;10.18;;;4.10;99.90;;;;;;5111202;28;20487;-83
2022/12/03 10:21:38;;;;;;;22.42;10.70;;;4.10;99.90;;;;;;5115654;28;20055;-84
2022/12/03 10:24:29;;;;;;;26.05;11.80;;;4.10;99.90;;;;;;5112278;28;20054;-86
2022/12/03 10:27:33;;;;;;;24.23;11.50;;;4.10;99.90;;;;;;5112115;28;20047;-86
2022/12/03 10:30:22;;;;;;;22.73;10.98;;;4.10;99.90;;;;;;5111161;28;20498;-81
2022/12/03 10:33:14;;;;;;;22.38;9.75;;;4.20;99.90;;;;;;5111036;28;20077;-85
2022/12/03 10:36:20;;;;;;;23.30;10.30;;;4.20;99.90;;;;;;5111073;28;20050;-85
2022/12/03 10:39:14;;;;;;;23.63;10.27;;;4.20;99.90;;;;;;5112963;28;20047;-85
2022/12/03 10:42:15;;;;;;;24.60;10.48;;;4.20;99.90;;;;;;5114263;28;20043;-85
2022/12/03 10:45:18;;;;;;;22.02;11.85;;;4.20;99.90;;;;;;5111408;28;20046;-85
2022/12/03 10:48:26;;;;;;;26.27;11.30;;;4.20;99.90;;;;;;5110043;28;20054;-82
2022/12/03 10:51:20;;;;;;;26.08;10.02;;;4.30;99.90;;;;;;5111716;28;20059;-84
2022/12/03 10:54:27;;;;;;;22.77;10.40;;;4.30;99.90;;;;;;5111748;28;20044;-83
2022/12/03 10:57:13;;;;;;;20.65;9.85;;;4.30;99.90;;;;;;5111174;28;20131;-84
2022/12/03 10:59:59;;;;;;;18.80;9.27;;;4.30;99.90;;;;;;5110089;28;20048;-83
2022/12/03 11:02:47;;;;;;;21.30;9.65;;;4.30;99.90;;;;;;5109593;28;20416;-86
2022/12/03 11:05:33;;;;;;;18.67;9.95;;;4.30;99.90;;;;;;5116832;28;20055;-82
2022/12/03 11:08:21;;;;;;;17.48;9.55;;;4.30;99.90;;;;;;5112690;28;20118;-83
2022/12/03 11:11:17;;;;;;;18.60;9.63;;;4.30;99.90;;;;;;5109873;28;20499;-78
2022/12/03 11:14:04;;;;;;;23.98;11.43;;;4.40;99.90;;;;;;5109143;28;20048;-80
2022/12/03 11:16:53;;;;;;;20.92;10.43;;;4.40;99.90;;;;;;5109553;28;20406;-78
2022/12/03 11:19:39;;;;;;;21.55;10.63;;;4.40;99.90;;;;;;5113616;28;20051;-80
2022/12/03 11:22:36;;;;;;;22.52;11.15;;;4.50;99.90;;;;;;5112864;28;20055;-86
2022/12/03 11:25:25;;;;;;;19.70;11.07;;;4.50;99.90;;;;;;5109091;28;20129;-85
2022/12/03 11:28:11;;;;;;;18.52;9.60;;;4.50;99.90;;;;;;5112239;28;20108;-84
2022/12/03 11:31:01;;;;;;;21.33;10.50;;;4.50;99.90;;;;;;5111679;28;20407;-81
2022/12/03 11:33:47;;;;;;;25.23;10.48;;;4.60;99.90;;;;;;5096464;28;20559;-79
2022/12/03 11:36:33;;;;;;;20.52;9.82;;;4.50;99.90;;;;;;5114437;28;20059;-79
2022/12/03 11:39:48;;;;;;;19.02;9.43;;;4.50;99.90;;;;;;5116841;28;20047;-79
2022/12/03 11:42:39;;;;;;;20.33;9.80;;;4.50;99.90;;;;;;5109587;28;20051;-79
2022/12/03 11:45:35;;;;;;;23.17;11.13;;;4.40;99.90;;;;;;5096011;28;20048;-83
2022/12/03 11:48:21;;;;;;;22.13;10.35;;;4.40;99.90;;;;;;5113666;28;20421;-78
2022/12/03 11:51:14;;;;;;;27.08;12.00;;;4.40;99.90;;;;;;5110801;28;20050;-78
2022/12/03 11:54:00;;;;;;;22.85;10.55;;;4.40;99.90;;;;;;5116403;27;20043;-80
2022/12/03 11:56:48;;;;;;;21.67;10.48;;;4.30;99.90;;;;;;5110607;28;20517;-81
2022/12/03 11:59:34;;;;;;;18.75;9.45;;;4.30;99.90;;;;;;5108478;28;20054;-79
2022/12/03 12:02:20;;;;;;;22.17;11.70;;;4.30;99.90;;;;;;5116179;28;20044;-80
2022/12/03 12:05:18;;;;;;;24.98;11.52;;;4.30;99.90;;;;;;5108241;28;20048;-80
2022/12/03 12:08:16;;;;;;;22.33;11.20;;;4.20;99.90;;;;;;5113524;28;20047;-86
2022/12/03 12:11:14;;;;;;;23.50;12.07;;;4.20;99.90;;;;;;5111539;28;20058;-79
2022/12/03 12:14:04;;;;;;;23.30;11.63;;;4.20;99.90;;;;;;5110690;28;20405;-80
2022/12/03 12:16:51;;;;;;;25.77;12.13;;;4.20;99.90;;;;;;5110916;28;20452;-80
2022/12/03 12:19:40;;;;;;;24.10;11.85;;;4.20;99.90;;;;;;5111706;28;20058;-84
2022/12/03 12:22:30;;;;;;;25.13;12.00;;;4.20;99.90;;;;;;5098296;28;20134;-82
2022/12/03 12:25:36;;;;;;;26.38;12.77;;;4.20;99.90;;;;;;5111570;28;20051;-79
2022/12/03 12:28:22;;;;;;;27.52;13.63;;;4.20;99.90;;;;;;5112234;28;20126;-81
2022/12/03 12:31:11;;;;;;;24.27;11.80;;;4.20;99.90;;;;;;5108796;28;20479;-85
2022/12/03 12:33:57;;;;;;;24.35;11.32;;;4.20;99.90;;;;;;5108888;28;20048;-82
2022/12/03 12:36:43;;;;;;;27.52;13.00;;;4.20;99.90;;;;;;5112511;28;20051;-79
2022/12/03 12:39:30;;;;;;;28.27;12.05;;;4.20;99.90;;;;;;5118996;28;20908;-85
2022/12/03 12:42:30;;;;;;;24.35;12.77;;;4.20;99.90;;;;;;5112299;28;20113;-81
2022/12/03 12:45:19;;;;;;;27.52;13.32;;;4.10;99.90;;;;;;5120699;28;20107;-79
2022/12/03 12:48:11;;;;;;;24.92;11.88;;;4.10;99.90;;;;;;5119704;28;20080;-79
2022/12/03 12:51:07;;;;;;;23.63;12.02;;;4.10;99.90;;;;;;5115958;28;20051;-79
2022/12/03 12:53:55;;;;;;;24.95;12.02;;;4.10;99.90;;;;;;5113448;28;20051;-78
2022/12/03 12:56:48;;;;;;;22.30;10.90;;;4.10;99.90;;;;;;5110969;28;20040;-77
2022/12/03 12:59:35;;;;;;;26.73;12.40;;;4.10;99.90;;;;;;5109409;28;20290;-80
2022/12/03 13:02:30;;;;;;;28.23;14.23;;;4.00;99.90;;;;;;5111772;28;20055;-78
2022/12/03 13:05:17;;;;;;;24.38;12.40;;;4.10;99.90;;;;;;5109066;28;20063;-80
2022/12/03 13:08:21;;;;;;;22.60;11.70;;;4.00;99.90;;;;;;5108794;28;20453;-81
2022/12/03 13:11:18;;;;;;;27.55;13.02;;;4.00;99.90;;;;;;5111973;28;20055;-79
2022/12/03 13:14:16;;;;;;;31.92;14.25;;;3.90;99.90;;;;;;5112452;28;20058;-79
2022/12/03 13:17:23;;;;;;;26.88;13.18;;;3.90;99.90;;;;;;5114932;28;20052;-84
2022/12/03 13:20:16;;;;;;;30.33;13.40;;;3.90;99.90;;;;;;5113366;28;20083;-80
2022/12/03 13:23:19;;;;;;;28.77;13.45;;;3.90;99.90;;;;;;5111351;28;20055;-78
2022/12/03 13:26:18;;;;;;;29.98;13.95;;;3.90;99.90;;;;;;5113604;28;20094;-81
2022/12/03 13:29:15;;;;;;;24.05;12.45;;;3.80;99.90;;;;;;5113332;28;20048;-85
2022/12/03 13:32:10;;;;;;;24.20;12.50;;;3.80;99.90;;;;;;5114136;28;20047;-81
2022/12/03 13:35:03;;;;;;;25.73;12.88;;;3.80;99.90;;;;;;5112861;28;20071;-83
2022/12/03 13:37:49;;;;;;;26.67;13.13;;;3.80;99.90;;;;;;5113252;28;20089;-82
2022/12/03 13:40:36;;;;;;;27.17;13.38;;;3.80;99.90;;;;;;5112432;28;20048;-84
2022/12/03 13:43:22;;;;;;;29.15;13.55;;;3.80;99.90;;;;;;5113288;28;20044;-78
2022/12/03 13:46:09;;;;;;;27.73;13.20;;;3.70;99.90;;;;;;5111630;28;20043;-81
2022/12/03 13:48:55;;;;;;;25.73;12.40;;;3.70;99.90;;;;;;5114323;28;20059;-78
2022/12/03 13:51:43;;;;;;;35.22;15.15;;;3.70;99.90;;;;;;5113027;28;20078;-79
2022/12/03 13:54:30;;;;;;;30.85;14.85;;;3.70;99.90;;;;;;5112753;28;20499;-80
2022/12/03 13:57:16;;;;;;;31.40;14.43;;;3.70;99.90;;;;;;5096372;28;20520;-78
2022/12/03 14:00:03;;;;;;;29.50;14.25;;;3.60;99.90;;;;;;5110441;28;20039;-80
2022/12/03 14:02:49;;;;;;;27.58;14.02;;;3.60;99.90;;;;;;5111506;28;20109;-83
2022/12/03 14:05:36;;;;;;;29.02;13.38;;;3.50;99.90;;;;;;5116578;28;20403;-82
2022/12/03 14:08:22;;;;;;;24.90;14.43;;;3.60;99.90;;;;;;5112752;28;20055;-85
2022/12/03 14:12:24;;;;;;;31.52;15.32;;;3.50;99.90;;;;;;5112424;28;20054;-79
2022/12/03 14:14:15;;;;;;;29.48;14.52;;;3.50;99.90;;;;;;5110190;28;20340;-80
2022/12/03 14:17:01;;;;;;;31.80;15.27;;;3.50;99.90;;;;;;5111044;28;20048;-77
2022/12/03 14:19:48;;;;;;;30.52;14.98;;;3.50;99.90;;;;;;5110839;28;20639;-80
2022/12/03 14:22:38;;;;;;;29.92;14.25;;;3.50;99.90;;;;;;5115853;28;20059;-80
2022/12/03 14:25:24;;;;;;;27.77;12.98;;;3.50;99.90;;;;;;5112348;28;20054;-77
2022/12/03 14:28:10;;;;;;;26.75;13.73;;;3.50;99.90;;;;;;5109965;28;20552;-80
2022/12/03 14:30:56;;;;;;;30.25;15.18;;;3.50;99.90;;;;;;5112137;28;20807;-78
2022/12/03 14:33:43;;;;;;;29.58;13.32;;;3.50;99.90;;;;;;5110474;28;20092;-78
2022/12/03 14:36:29;;;;;;;29.13;13.52;;;3.50;99.90;;;;;;5099405;28;20058;-78
2022/12/03 14:39:15;;;;;;;26.48;13.55;;;3.50;99.90;;;;;;5111876;28;20050;-86
2022/12/03 14:42:13;;;;;;;29.60;14.60;;;3.50;99.90;;;;;;5109748;28;20052;-79
2022/12/03 14:44:59;;;;;;;29.90;14.68;;;3.50;99.90;;;;;;5110157;28;20059;-78
2022/12/03 14:47:45;;;;;;;29.20;14.02;;;3.40;99.90;;;;;;5111788;28;20047;-82
2022/12/03 14:50:31;;;;;;;28.42;13.90;;;3.40;99.90;;;;;;5114598;28;20047;-82
2022/12/03 14:53:18;;;;;;;30.85;13.48;;;3.40;99.90;;;;;;5113939;28;20131;-83
2022/12/03 14:56:04;;;;;;;34.28;14.23;;;3.40;99.90;;;;;;5112028;28;20047;-85
2022/12/03 14:58:50;;;;;;;31.40;15.63;;;3.30;99.90;;;;;;5111011;28;20388;-78
2022/12/03 15:01:36;;;;;;;28.42;13.70;;;3.30;99.90;;;;;;5110097;28;20482;-81
2022/12/03 15:04:22;;;;;;;27.52;14.57;;;3.30;99.90;;;;;;5111520;28;20410;-85
2022/12/03 15:07:09;;;;;;;30.50;14.70;;;3.20;99.90;;;;;;5095995;28;20055;-79
2022/12/03 15:09:55;;;;;;;33.13;14.82;;;3.20;99.90;;;;;;5112068;28;20048;-82
2022/12/03 15:12:41;;;;;;;33.40;15.52;;;3.20;99.90;;;;;;5112228;28;20460;-78
2022/12/03 15:15:27;;;;;;;26.92;12.73;;;3.20;99.90;;;;;;5111665;28;20090;-81
2022/12/03 15:18:14;;;;;;;29.80;14.82;;;3.20;99.90;;;;;;5111800;28;20048;-78
2022/12/03 15:21:00;;;;;;;25.95;13.65;;;3.20;99.90;;;;;;5109617;28;20044;-77
2022/12/03 15:23:46;;;;;;;27.65;12.77;;;3.20;99.90;;;;;;5109063;28;20047;-79
2022/12/03 15:26:32;;;;;;;28.08;14.45;;;3.10;99.90;;;;;;5112586;28;20059;-81
2022/12/03 15:29:19;;;;;;;29.67;13.23;;;3.10;99.90;;;;;;5115689;28;20047;-82
2022/12/03 15:32:05;;;;;;;29.35;14.13;;;3.10;99.90;;;;;;5111404;28;20051;-81
2022/12/03 15:34:51;;;;;;;29.42;14.20;;;3.10;99.90;;;;;;5111850;28;20054;-81
2022/12/03 15:37:38;;;;;;;30.58;14.15;;;3.10;99.90;;;;;;5112329;28;20050;-86
2022/12/03 15:40:24;;;;;;;26.67;13.80;;;3.00;99.90;;;;;;5113911;28;20051;-80
2022/12/03 15:43:11;;;;;;;31.63;15.38;;;3.00;99.90;;;;;;5110637;28;20047;-82
2022/12/03 15:45:57;;;;;;;30.48;14.38;;;3.00;99.90;;;;;;5109241;28;20051;-79
2022/12/03 15:48:43;;;;;;;32.88;15.75;;;2.90;99.90;;;;;;5112004;28;20493;-84
2022/12/03 15:51:29;;;;;;;27.73;13.68;;;2.90;99.90;;;;;;5110467;28;20051;-77
2022/12/03 15:54:15;;;;;;;32.78;14.25;;;2.90;99.90;;;;;;5111060;28;20435;-84
2022/12/03 15:57:01;;;;;;;34.95;15.85;;;2.80;99.90;;;;;;5116239;28;20139;-82
2022/12/03 15:59:47;;;;;;;30.40;15.90;;;2.80;99.90;;;;;;5111118;28;20048;-81
2022/12/03 16:02:34;;;;;;;32.20;15.18;;;2.80;99.90;;;;;;5095000;28;20051;-79
2022/12/03 16:05:20;;;;;;;31.92;15.05;;;2.70;99.90;;;;;;5108649;28;20180;-78
2022/12/03 16:08:06;;;;;;;31.38;15.45;;;2.70;99.90;;;;;;5110204;28;20509;-82
2022/12/03 16:10:52;;;;;;;30.42;15.60;;;2.70;99.90;;;;;;5112997;28;20093;-87
2022/12/03 16:13:39;;;;;;;30.85;16.60;;;2.60;99.90;;;;;;5110627;28;20048;-77
2022/12/03 16:16:25;;;;;;;36.33;16.08;;;2.60;99.90;;;;;;5094870;28;20055;-84
2022/12/03 16:19:11;;;;;;;36.17;18.00;;;2.60;99.90;;;;;;5108732;28;20054;-86
2022/12/03 16:21:58;;;;;;;31.77;15.80;;;2.60;99.90;;;;;;5107684;28;20059;-79
2022/12/03 16:24:44;;;;;;;35.90;17.13;;;2.60;99.90;;;;;;5108890;28;20074;-81
2022/12/03 16:27:30;;;;;;;36.00;17.83;;;2.60;99.90;;;;;;5108112;28;20070;-80
2022/12/03 16:30:16;;;;;;;29.85;15.27;;;2.60;99.90;;;;;;5110129;28;20040;-85
2022/12/03 16:33:03;;;;;;;36.15;16.05;;;2.60;99.90;;;;;;5110885;28;20097;-83
2022/12/03 16:35:49;;;;;;;32.70;16.25;;;2.60;99.90;;;;;;5108960;28;20384;-80
2022/12/03 16:38:35;;;;;;;38.75;18.00;;;2.60;99.90;;;;;;5108600;28;20120;-80
2022/12/03 16:41:21;;;;;;;33.35;16.80;;;2.60;99.90;;;;;;5109162;28;20047;-78
2022/12/03 16:44:18;;;;;;;35.15;16.45;;;2.60;99.90;;;;;;5111085;28;20441;-85
2022/12/03 16:47:04;;;;;;;34.35;16.20;;;2.60;99.90;;;;;;5116864;28;20134;-85
2022/12/03 16:49:50;;;;;;;37.60;16.05;;;2.60;99.90;;;;;;5113809;28;20494;-79
2022/12/03 16:52:37;;;;;;;36.10;16.17;;;2.50;99.90;;;;;;5114381;28;20040;-78
2022/12/03 16:55:23;;;;;;;37.55;16.60;;;2.50;99.90;;;;;;5113819;28;20370;-80
2022/12/03 16:58:09;;;;;;;34.22;16.48;;;2.60;99.90;;;;;;5114116;28;20052;-77
2022/12/03 17:00:55;;;;;;;33.92;15.95;;;2.60;99.90;;;;;;5114067;28;20132;-85
2022/12/03 17:03:41;;;;;;;29.63;15.32;;;2.60;99.90;;;;;;5097962;28;20089;-79
2022/12/03 17:06:27;;;;;;;31.80;14.75;;;2.60;99.90;;;;;;5115461;28;20067;-84
2022/12/03 17:09:14;;;;;;;32.25;15.60;;;2.70;99.90;;;;;;5112545;28;20055;-82
2022/12/03 17:12:00;;;;;;;32.50;15.70;;;2.70;99.90;;;;;;5113961;28;20130;-79
2022/12/03 17:14:46;;;;;;;30.92;13.80;;;2.70;99.90;;;;;;5111797;28;20047;-78
2022/12/03 17:17:32;;;;;;;32.78;14.18;;;2.70;99.90;;;;;;5112654;28;20462;-80
2022/12/03 17:20:18;;;;;;;32.15;14.13;;;2.70;99.90;;;;;;5112725;28;20051;-86
2022/12/03 17:23:05;;;;;;;32.83;14.88;;;2.70;99.90;;;;;;5115044;28;20058;-81
2022/12/03 17:25:51;;;;;;;33.33;14.90;;;2.80;99.90;;;;;;5113500;28;20090;-86
2022/12/03 17:28:37;;;;;;;34.92;16.40;;;2.80;99.90;;;;;;5112158;28;20467;-79
2022/12/03 17:31:23;;;;;;;27.05;13.50;;;2.70;99.90;;;;;;5112510;28;20051;-79
2022/12/03 17:34:09;;;;;;;27.42;12.13;;;2.80;99.90;;;;;;5110771;28;20047;-80
2022/12/03 17:36:55;;;;;;;29.75;13.70;;;2.80;99.90;;;;;;5111896;28;20083;-84
2022/12/03 17:39:41;;;;;;;27.65;13.40;;;2.80;99.90;;;;;;5115661;28;20673;-83
2022/12/03 17:42:27;;;;;;;27.10;11.75;;;2.90;99.90;;;;;;5113541;28;20051;-77
2022/12/03 17:45:14;;;;;;;26.58;12.20;;;2.90;99.90;;;;;;5111723;28;20109;-77
2022/12/03 17:48:00;;;;;;;26.42;12.43;;;2.90;99.90;;;;;;5111728;28;20058;-81
2022/12/03 17:50:47;;;;;;;23.67;11.45;;;2.90;99.90;;;;;;5112449;28;20067;-79
2022/12/03 17:53:33;;;;;;;25.40;11.70;;;2.90;99.90;;;;;;5114762;28;20058;-86
2022/12/03 17:56:20;;;;;;;23.35;11.57;;;2.90;99.90;;;;;;5113069;28;20101;-77
2022/12/03 17:59:06;;;;;;;24.52;11.52;;;2.90;99.90;;;;;;5112482;28;20410;-84
2022/12/03 18:01:52;;;;;;;25.30;12.60;;;2.90;99.90;;;;;;5097159;28;20051;-82
2022/12/03 18:04:38;;;;;;;24.40;11.55;;;2.80;99.90;;;;;;5112573;28;20418;-85
2022/12/03 18:07:24;;;;;;;26.67;12.20;;;2.80;99.90;;;;;;5099204;28;20411;-85
2022/12/03 18:10:11;;;;;;;25.92;12.32;;;2.80;99.90;;;;;;5113551;28;20067;-86
2022/12/03 18:12:57;;;;;;;23.90;11.30;;;2.70;99.90;;;;;;5113008;28;20035;-79
2022/12/03 18:15:43;;;;;;;25.00;12.30;;;2.70;99.90;;;;;;5112769;28;20044;-82
2022/12/03 18:18:29;;;;;;;27.33;12.80;;;2.60;99.90;;;;;;5111880;28;20054;-82
2022/12/03 18:21:15;;;;;;;24.80;13.07;;;2.60;99.90;;;;;;5110433;28;20305;-86
2022/12/03 18:24:01;;;;;;;26.95;12.15;;;2.50;99.90;;;;;;5096940;28;20465;-86
2022/12/03 18:26:48;;;;;;;30.33;13.20;;;2.50;99.90;;;;;;5116436;28;20134;-86
2022/12/03 18:29:35;;;;;;;24.55;12.02;;;2.50;99.90;;;;;;5112625;28;20487;-79
2022/12/03 18:32:21;;;;;;;25.63;12.73;;;2.40;99.90;;;;;;5110614;28;20044;-78
2022/12/03 18:35:07;;;;;;;25.13;12.55;;;2.40;99.90;;;;;;5112338;28;20040;-79
2022/12/03 18:37:53;;;;;;;29.48;12.27;;;2.30;99.90;;;;;;5112144;28;20047;-80
2022/12/03 18:40:42;;;;;;;24.33;11.70;;;2.30;99.90;;;;;;5111174;28;20043;-84
2022/12/03 18:43:28;;;;;;;27.23;13.90;;;2.30;99.90;;;;;;5113004;28;20054;-82
2022/12/03 18:46:17;;;;;;;24.95;12.43;;;2.20;99.90;;;;;;5111949;28;20047;-81
2022/12/03 18:49:03;;;;;;;24.48;12.52;;;2.20;99.90;;;;;;5111658;28;20055;-83
2022/12/03 18:51:49;;;;;;;27.95;12.13;;;2.10;99.90;;;;;;5096385;28;20043;-84
2022/12/03 18:54:35;;;;;;;26.33;11.52;;;2.10;99.90;;;;;;5110465;28;20414;-79
2022/12/03 18:57:22;;;;;;;25.38;11.48;;;2.10;99.90;;;;;;5111962;28;20399;-86
2022/12/03 19:00:09;;;;;;;25.15;12.88;;;2.10;99.90;;;;;;5111847;28;20079;-84
2022/12/03 19:02:55;;;;;;;26.48;11.93;;;2.10;99.90;;;;;;5111315;28;20052;-86
2022/12/03 19:05:41;;;;;;;26.35;12.85;;;2.10;99.90;;;;;;5109059;28;20143;-86
2022/12/03 19:08:27;;;;;;;28.38;12.93;;;2.00;99.90;;;;;;5111576;28;20052;-81
2022/12/03 19:11:14;;;;;;;27.15;11.88;;;2.00;99.90;;;;;;5111750;28;20059;-79
2022/12/03 19:14:01;;;;;;;26.95;11.73;;;1.90;99.90;;;;;;5113524;28;20044;-85
2022/12/03 19:16:48;;;;;;;25.92;11.77;;;1.90;99.90;;;;;;5112479;28;20097;-86
2022/12/03 19:19:35;;;;;;;27.60;12.43;;;1.90;99.90;;;;;;5112083;28;20111;-82
2022/12/03 19:22:22;;;;;;;31.15;13.15;;;1.90;99.90;;;;;;5111267;28;20051;-85
2022/12/03 19:25:08;;;;;;;27.55;11.73;;;1.90;99.90;;;;;;5111489;28;20050;-78
2022/12/03 19:27:55;;;;;;;26.23;12.00;;;1.90;99.90;;;;;;5111289;28;20047;-78
2022/12/03 19:30:42;;;;;;;25.27;11.45;;;1.80;99.90;;;;;;5113513;28;20495;-81
2022/12/03 19:33:29;;;;;;;24.13;11.45;;;1.80;99.90;;;;;;5111690;28;20051;-85
2022/12/03 19:36:26;;;;;;;25.80;12.10;;;1.80;99.90;;;;;;5110767;28;20054;-80
2022/12/03 19:39:13;;;;;;;30.45;12.93;;;1.80;99.90;;;;;;5111392;28;20043;-85
2022/12/03 19:41:59;;;;;;;29.65;13.05;;;1.70;99.90;;;;;;5095316;28;20117;-80
2022/12/03 19:44:45;;;;;;;26.45;11.50;;;1.70;99.90;;;;;;5114802;28;20056;-81
2022/12/03 19:47:33;;;;;;;27.05;12.27;;;1.70;99.90;;;;;;5096501;28;20391;-83
2022/12/03 19:50:19;;;;;;;31.35;14.30;;;1.70;99.90;;;;;;5111193;28;20070;-84
2022/12/03 19:53:05;;;;;;;29.80;13.73;;;1.60;99.90;;;;;;5110920;28;20051;-81
2022/12/03 19:55:52;;;;;;;28.00;12.52;;;1.60;99.90;;;;;;5109949;28;20556;-83
2022/12/03 19:58:43;;;;;;;25.13;11.57;;;1.60;99.90;;;;;;5111097;28;20130;-85
2022/12/03 20:01:32;;;;;;;29.77;13.48;;;1.60;99.90;;;;;;5100371;28;20048;-79
2022/12/03 20:04:18;;;;;;;26.27;12.38;;;1.50;99.90;;;;;;5110637;28;20047;-81
2022/12/03 20:07:05;;;;;;;27.38;13.25;;;1.50;99.90;;;;;;5111145;28;20050;-80
2022/12/03 20:09:51;;;;;;;30.95;13.68;;;1.40;99.90;;;;;;5109359;28;20460;-80
2022/12/03 20:12:38;;;;;;;32.83;14.43;;;1.40;99.90;;;;;;5109844;28;20051;-79
2022/12/03 20:15:24;;;;;;;30.38;13.95;;;1.30;99.90;;;;;;5111015;28;20058;-84
2022/12/03 20:18:10;;;;;;;25.17;11.95;;;1.30;99.90;;;;;;5110160;28;20044;-85
2022/12/03 20:21:01;;;;;;;32.70;14.15;;;1.20;99.90;;;;;;5111211;28;20048;-85
2022/12/03 20:23:47;;;;;;;34.28;14.10;;;1.20;99.90;;;;;;5110156;28;20055;-79
2022/12/03 20:26:33;;;;;;;29.10;11.98;;;1.10;99.90;;;;;;5108605;28;20109;-80
2022/12/03 20:29:20;;;;;;;30.50;13.57;;;1.10;99.90;;;;;;5110198;28;20123;-83
2022/12/03 20:32:06;;;;;;;28.80;13.68;;;1.10;99.90;;;;;;5111445;28;20138;-79
2022/12/03 20:34:52;;;;;;;33.05;13.02;;;1.00;99.90;;;;;;5111203;28;20044;-86
2022/12/03 20:37:38;;;;;;;32.47;13.68;;;1.00;99.90;;;;;;5091282;28;20055;-80
2022/12/03 20:40:24;;;;;;;27.70;12.93;;;0.90;99.90;;;;;;5109898;28;20497;-86
2022/12/03 20:43:11;;;;;;;30.52;13.73;;;0.90;99.90;;;;;;5110847;28;20044;-86
2022/12/03 20:46:12;;;;;;;32.33;13.43;;;0.90;99.90;;;;;;5112447;28;20059;-82
2022/12/03 20:48:58;;;;;;;33.28;14.90;;;0.90;99.90;;;;;;5109659;28;20052;-79
2022/12/03 20:51:48;;;;;;;31.55;14.40;;;0.90;99.90;;;;;;5110754;28;20433;-86
2022/12/03 20:54:35;;;;;;;29.40;13.48;;;0.90;99.90;;;;;;5111313;28;20046;-80
2022/12/03 20:57:21;;;;;;;31.38;14.02;;;0.80;99.90;;;;;;5110766;28;20123;-79
2022/12/03 21:00:07;;;;;;;28.35;13.43;;;0.80;99.90;;;;;;5096249;28;20059;-85
2022/12/03 21:02:54;;;;;;;33.20;14.60;;;0.80;99.90;;;;;;5110623;28;20384;-78
2022/12/03 21:05:43;;;;;;;32.65;13.00;;;0.70;99.90;;;;;;5092762;28;20091;-79
2022/12/03 21:08:30;;;;;;;29.17;13.90;;;0.70;99.90;;;;;;5111341;28;20387;-85
2022/12/03 21:11:18;;;;;;;30.83;14.18;;;0.60;99.90;;;;;;5110793;28;20058;-83
2022/12/03 21:14:04;;;;;;;29.08;13.85;;;0.60;99.90;;;;;;5117083;28;20044;-80
2022/12/03 21:16:51;;;;;;;26.27;12.40;;;0.60;99.90;;;;;;5092100;28;20540;-78
2022/12/03 21:19:37;;;;;;;32.85;14.13;;;0.50;99.90;;;;;;5092122;28;20043;-79
2022/12/03 21:22:23;;;;;;;30.60;13.27;;;0.50;99.90;;;;;;5091997;28;20056;-83
2022/12/03 21:25:10;;;;;;;31.08;14.93;;;0.50;99.90;;;;;;5111599;28;20050;-83
2022/12/03 21:27:56;;;;;;;27.90;13.07;;;0.50;99.90;;;;;;5079623;28;20059;-82
2022/12/03 21:30:42;;;;;;;35.67;13.48;;;0.40;99.90;;;;;;5103301;28;20173;-83
2022/12/03 21:33:29;;;;;;;32.20;14.77;;;0.40;99.90;;;;;;5113724;28;20467;-84
2022/12/03 21:36:15;;;;;;;31.70;16.75;;;0.40;99.90;;;;;;5114536;28;20135;-82
2022/12/03 21:39:03;;;;;;;27.65;13.38;;;0.30;99.90;;;;;;5097128;28;20429;-85
2022/12/03 21:41:49;;;;;;;31.10;14.13;;;0.20;99.90;;;;;;5113785;28;20064;-84
2022/12/03 21:44:35;;;;;;;32.85;14.98;;;0.20;99.90;;;;;;5099209;28;20043;-84
2022/12/03 21:47:21;;;;;;;30.20;14.00;;;0.20;99.90;;;;;;5113694;28;20480;-84
2022/12/03 21:50:10;;;;;;;38.00;15.50;;;0.20;99.90;;;;;;5095501;28;20040;-85
2022/12/03 21:52:56;;;;;;;31.63;16.95;;;0.10;99.90;;;;;;5099357;28;20051;-81
2022/12/03 21:55:42;;;;;;;30.73;14.65;;;0.10;99.90;;;;;;5118870;28;20510;-78
2022/12/03 21:58:28;;;;;;;31.35;15.13;;;0.10;99.90;;;;;;5116843;28;20047;-82
2022/12/03 22:01:20;;;;;;;37.97;16.58;;;0.00;99.90;;;;;;5095978;28;20055;-79
2022/12/03 22:04:06;;;;;;;35.20;14.93;;;0.00;99.90;;;;;;5095829;28;20040;-79
2022/12/03 22:06:53;;;;;;;38.15;16.10;;;0.00;99.90;;;;;;5095611;28;20058;-79
2022/12/03 22:09:40;;;;;;;35.63;17.05;;;0.00;99.90;;;;;;5113313;28;20047;-86
2022/12/03 22:12:26;;;;;;;32.92;14.98;;;-0.10;99.90;;;;;;5098701;28;20051;-80
2022/12/03 22:15:12;;;;;;;35.28;15.32;;;-0.10;99.90;;;;;;5114753;28;20072;-81
2022/12/03 22:17:58;;;;;;;37.45;16.90;;;-0.10;99.90;;;;;;5116572;28;20051;-86
2022/12/03 22:20:44;;;;;;;37.58;17.25;;;-0.10;99.90;;;;;;5094170;28;20090;-85
2022/12/03 22:23:31;;;;;;;38.15;16.25;;;-0.10;99.90;;;;;;5080559;28;20051;-86
2022/12/03 22:26:18;;;;;;;37.20;16.48;;;-0.20;99.90;;;;;;5114405;28;20044;-84
2022/12/03 22:29:05;;;;;;;35.35;16.85;;;-0.10;99.90;;;;;;5100215;28;20495;-81
2022/12/03 22:31:51;;;;;;;35.55;16.05;;;-0.20;99.90;;;;;;5095733;28;20134;-81
2022/12/03 22:34:37;;;;;;;32.88;15.77;;;-0.10;99.90;;;;;;5113635;28;20511;-86
2022/12/03 22:37:23;;;;;;;37.10;16.25;;;-0.10;99.90;;;;;;5093696;28;20079;-82
2022/12/03 22:40:10;;;;;;;38.38;18.42;;;-0.10;99.90;;;;;;5113337;28;20047;-85
2022/12/03 22:42:56;;;;;;;38.22;18.30;;;-0.10;99.90;;;;;;5097129;28;20063;-80
2022/12/03 22:45:42;;;;;;;37.70;17.17;;;-0.10;99.90;;;;;;5114742;28;20047;-84
2022/12/03 22:48:28;;;;;;;35.90;16.15;;;-0.10;99.90;;;;;;5099007;28;20054;-80